Time;durP1;ratioP1;P1;durP2;ratioP2;P2;SDS_P1;SDS_P2;PMS_P1;PMS_P2;Temp;Humidity;BMP_temperature;BMP_pressure;BME280_temperature;BME280_humidity;BME280_pressure;Samples;Min_cycle;Max_cycle;Signal;HPM_P1;HPM_P2
2022/07/16 00:01:46;;;;;;;11.88;7.55;;;6.00;97.60;;;;;;5003752;28;20060;-59
2022/07/16 00:04:13;;;;;;;11.88;6.60;;;6.10;97.70;;;;;;5008751;28;20482;-63
2022/07/16 00:06:43;;;;;;;9.07;6.10;;;6.20;97.00;;;;;;5009599;28;20032;-63
2022/07/16 00:09:11;;;;;;;8.95;5.47;;;6.30;96.50;;;;;;5009463;28;20018;-65
2022/07/16 00:11:39;;;;;;;8.55;5.88;;;6.40;96.10;;;;;;5008904;28;20061;-64
2022/07/16 00:14:06;;;;;;;8.27;6.18;;;6.60;95.50;;;;;;5008080;28;20063;-68
2022/07/16 00:16:34;;;;;;;7.47;5.40;;;6.70;94.40;;;;;;5010631;28;20136;-64
2022/07/16 00:19:16;;;;;;;6.60;4.82;;;6.80;94.90;;;;;;5008848;28;20471;-61
2022/07/16 00:21:45;;;;;;;9.13;5.00;;;7.00;94.80;;;;;;5009694;28;20753;-62
2022/07/16 00:24:13;;;;;;;7.18;4.50;;;7.10;92.00;;;;;;5009761;28;20080;-63
2022/07/16 00:26:40;;;;;;;5.93;4.15;;;7.20;92.40;;;;;;5009266;28;20026;-63
2022/07/16 00:29:08;;;;;;;8.60;3.95;;;7.40;93.30;;;;;;5010043;28;20121;-63
2022/07/16 00:31:35;;;;;;;6.57;4.07;;;7.50;93.30;;;;;;5013227;28;20026;-63
2022/07/16 00:34:06;;;;;;;6.38;3.80;;;7.70;92.20;;;;;;5010390;28;20018;-63
2022/07/16 00:36:35;;;;;;;9.38;4.70;;;7.80;91.80;;;;;;5014657;28;20051;-57
2022/07/16 00:39:04;;;;;;;9.82;4.88;;;8.00;91.50;;;;;;5011428;28;20071;-59
2022/07/16 00:41:32;;;;;;;8.02;4.18;;;8.10;89.40;;;;;;5009724;28;20076;-63
2022/07/16 00:44:04;;;;;;;9.45;4.97;;;8.20;88.60;;;;;;5010215;28;20014;-62
2022/07/16 00:46:33;;;;;;;7.15;4.15;;;8.40;88.50;;;;;;5014048;28;20129;-60
2022/07/16 00:49:00;;;;;;;10.20;5.53;;;8.60;90.20;;;;;;5009384;28;20412;-61
2022/07/16 00:51:29;;;;;;;12.32;5.47;;;8.80;88.30;;;;;;5010574;28;20075;-61
2022/07/16 00:53:57;;;;;;;10.90;5.32;;;8.90;86.40;;;;;;5010203;28;20022;-60
2022/07/16 00:56:25;;;;;;;11.38;5.68;;;9.10;88.40;;;;;;5010170;28;20030;-62
2022/07/16 00:58:54;;;;;;;10.45;5.40;;;9.20;88.30;;;;;;5010636;28;20109;-61
2022/07/16 01:01:22;;;;;;;9.27;5.55;;;9.30;89.00;;;;;;5013423;28;20030;-60
2022/07/16 01:03:50;;;;;;;12.10;6.03;;;9.40;87.50;;;;;;5020903;28;20036;-60
2022/07/16 01:06:18;;;;;;;12.77;6.45;;;9.50;86.90;;;;;;5010277;28;20026;-58
2022/07/16 01:08:49;;;;;;;15.02;7.38;;;9.70;81.90;;;;;;5005520;28;20403;-58
2022/07/16 01:11:19;;;;;;;12.30;6.40;;;9.60;82.70;;;;;;5008370;28;20030;-63
2022/07/16 01:13:50;;;;;;;10.50;6.22;;;9.60;82.60;;;;;;5007295;28;20029;-61
2022/07/16 01:16:19;;;;;;;11.20;6.63;;;9.60;83.40;;;;;;5008739;28;20502;-61
2022/07/16 01:18:47;;;;;;;13.88;6.70;;;9.60;85.10;;;;;;5001227;28;20038;-68
2022/07/16 01:21:15;;;;;;;10.52;5.93;;;9.70;87.00;;;;;;5006717;28;20025;-68
2022/07/16 01:23:45;;;;;;;12.45;6.30;;;9.70;82.80;;;;;;5009904;28;20425;-67
2022/07/16 01:26:13;;;;;;;9.93;5.85;;;9.70;82.00;;;;;;5009433;28;20032;-59
2022/07/16 01:28:40;;;;;;;8.90;5.38;;;9.80;81.60;;;;;;5008247;28;20028;-61
2022/07/16 01:31:11;;;;;;;9.23;4.85;;;9.90;83.10;;;;;;5008868;28;20446;-62
2022/07/16 01:33:40;;;;;;;6.88;4.20;;;10.20;86.50;;;;;;5007855;28;20017;-61
2022/07/16 01:36:13;;;;;;;8.07;4.78;;;10.40;82.20;;;;;;5007053;28;20433;-62
2022/07/16 01:38:42;;;;;;;4.45;3.15;;;10.60;79.30;;;;;;5007588;28;20034;-59
2022/07/16 01:41:11;;;;;;;6.63;2.85;;;10.80;78.50;;;;;;5007477;28;20706;-60
2022/07/16 01:43:39;;;;;;;7.68;4.40;;;10.80;75.40;;;;;;5008643;28;20021;-59
2022/07/16 01:46:06;;;;;;;6.85;2.85;;;10.90;79.80;;;;;;5002378;28;20030;-56
2022/07/16 01:48:34;;;;;;;5.15;2.40;;;11.00;79.90;;;;;;5015265;28;20436;-59
2022/07/16 01:51:01;;;;;;;4.13;1.73;;;11.10;76.90;;;;;;5001880;28;20037;-52
2022/07/16 01:53:29;;;;;;;3.85;2.50;;;11.30;76.20;;;;;;5006275;28;20064;-57
2022/07/16 01:55:58;;;;;;;4.93;2.15;;;11.40;74.30;;;;;;5006144;28;20056;-52
2022/07/16 01:58:25;;;;;;;3.75;2.10;;;11.50;72.80;;;;;;5008829;28;20018;-56
2022/07/16 02:00:53;;;;;;;4.78;2.15;;;11.60;76.10;;;;;;4998566;28;20509;-52
2022/07/16 02:03:21;;;;;;;3.58;2.30;;;11.80;71.80;;;;;;5005031;28;20034;-55
2022/07/16 02:05:48;;;;;;;3.90;2.00;;;12.00;73.70;;;;;;5003637;28;20483;-49
2022/07/16 02:08:16;;;;;;;3.70;2.03;;;12.10;70.40;;;;;;5007483;28;20037;-57
2022/07/16 02:10:43;;;;;;;3.33;1.90;;;12.30;71.30;;;;;;5011285;28;20076;-55
2022/07/16 02:13:11;;;;;;;4.63;2.10;;;12.60;73.30;;;;;;5014143;28;20554;-53
2022/07/16 02:15:38;;;;;;;3.95;1.95;;;12.80;70.90;;;;;;5012184;28;20394;-53
2022/07/16 02:18:05;;;;;;;4.25;1.98;;;13.00;70.80;;;;;;5014991;28;20029;-62
2022/07/16 02:20:32;;;;;;;5.88;2.38;;;13.00;67.70;;;;;;5002398;28;20030;-55
2022/07/16 02:23:00;;;;;;;4.25;2.08;;;13.10;70.90;;;;;;5006095;28;20030;-54
2022/07/16 02:25:27;;;;;;;3.15;1.88;;;13.20;65.80;;;;;;5009845;28;20568;-52
2022/07/16 02:28:07;;;;;;;3.60;1.92;;;13.30;69.70;;;;;;5014836;28;20067;-51
2022/07/16 02:30:41;;;;;;;3.20;1.50;;;13.40;68.90;;;;;;5010008;28;20064;-51
2022/07/16 02:33:10;;;;;;;3.72;1.60;;;13.40;65.20;;;;;;5011594;28;20026;-57
2022/07/16 02:35:38;;;;;;;3.13;1.58;;;13.50;67.00;;;;;;5011135;28;20522;-56
2022/07/16 02:38:06;;;;;;;4.90;1.67;;;13.70;69.30;;;;;;5009678;28;20097;-53
2022/07/16 02:40:35;;;;;;;2.63;1.67;;;13.80;67.20;;;;;;5011805;28;20038;-56
2022/07/16 02:43:04;;;;;;;2.03;1.25;;;13.80;66.70;;;;;;5011035;28;20509;-56
2022/07/16 02:45:33;;;;;;;4.55;1.30;;;14.00;64.00;;;;;;5005136;28;20088;-54
2022/07/16 02:48:01;;;;;;;3.35;1.77;;;14.00;64.80;;;;;;4993076;28;20132;-53
2022/07/16 02:50:29;;;;;;;2.42;1.10;;;14.00;64.70;;;;;;5007087;28;20660;-53
2022/07/16 02:52:57;;;;;;;2.22;1.20;;;14.20;63.70;;;;;;5011310;28;20562;-54
2022/07/16 02:55:24;;;;;;;2.60;1.27;;;14.30;62.80;;;;;;5011538;28;20088;-54
2022/07/16 02:57:52;;;;;;;2.38;1.40;;;14.40;63.60;;;;;;5009712;28;20375;-53
2022/07/16 03:00:20;;;;;;;1.83;1.30;;;14.60;63.60;;;;;;5011877;28;20052;-54
2022/07/16 03:02:47;;;;;;;2.20;1.27;;;14.60;62.90;;;;;;5009503;28;20056;-55
2022/07/16 03:05:15;;;;;;;2.15;1.23;;;14.70;62.80;;;;;;5009889;28;20033;-53
2022/07/16 03:07:42;;;;;;;3.17;1.60;;;14.70;62.80;;;;;;5012042;28;20030;-51
2022/07/16 03:10:11;;;;;;;2.75;1.38;;;14.60;61.90;;;;;;5011808;28;20026;-52
2022/07/16 03:12:39;;;;;;;3.20;1.33;;;14.70;61.00;;;;;;5011615;28;20163;-56
2022/07/16 03:15:10;;;;;;;2.25;1.23;;;14.70;62.80;;;;;;5008129;28;20036;-51
2022/07/16 03:17:37;;;;;;;4.45;1.48;;;14.70;62.30;;;;;;5011016;28;20029;-56
2022/07/16 03:20:05;;;;;;;2.97;1.70;;;14.70;61.50;;;;;;5012128;28;20029;-56
2022/07/16 03:22:33;;;;;;;2.85;1.13;;;14.60;62.00;;;;;;5012403;28;20022;-55
2022/07/16 03:25:00;;;;;;;2.95;1.30;;;14.60;62.80;;;;;;5012141;28;20097;-54
2022/07/16 03:27:27;;;;;;;2.28;1.10;;;14.60;62.60;;;;;;5009859;28;20490;-54
2022/07/16 03:29:55;;;;;;;2.33;1.10;;;14.50;62.00;;;;;;5003696;28;20022;-55
2022/07/16 03:32:22;;;;;;;2.67;1.05;;;14.50;61.70;;;;;;5006296;28;20433;-52
2022/07/16 03:34:49;;;;;;;2.72;1.15;;;14.50;62.20;;;;;;4992336;28;20027;-55
2022/07/16 03:37:16;;;;;;;2.72;1.05;;;14.60;61.80;;;;;;5000268;28;20034;-52
2022/07/16 03:39:44;;;;;;;2.47;1.17;;;14.60;62.30;;;;;;5016752;28;20109;-55
2022/07/16 03:42:11;;;;;;;1.75;0.82;;;14.70;62.00;;;;;;5012249;28;20542;-50
2022/07/16 03:44:38;;;;;;;2.35;1.20;;;14.70;61.50;;;;;;5010977;28;20048;-57
2022/07/16 03:47:06;;;;;;;3.42;2.03;;;14.70;62.10;;;;;;5011606;28;20655;-56
2022/07/16 03:49:33;;;;;;;1.92;0.98;;;14.70;62.60;;;;;;5011215;28;20467;-55
2022/07/16 03:52:00;;;;;;;2.63;1.05;;;14.80;62.70;;;;;;5011220;28;20036;-55
2022/07/16 03:54:27;;;;;;;3.42;0.90;;;14.80;62.00;;;;;;5010092;28;20038;-54
2022/07/16 03:56:54;;;;;;;1.95;1.02;;;15.00;62.50;;;;;;5008640;28;20034;-54
2022/07/16 03:59:22;;;;;;;3.85;1.52;;;15.00;62.80;;;;;;5008331;28;20025;-55
2022/07/16 04:01:49;;;;;;;2.42;1.20;;;15.00;63.30;;;;;;5005588;28;20026;-52
2022/07/16 04:04:16;;;;;;;2.10;1.23;;;15.10;62.20;;;;;;5010433;28;20030;-55
2022/07/16 04:06:43;;;;;;;4.07;1.40;;;15.20;64.00;;;;;;5009699;28;20030;-53
2022/07/16 04:09:11;;;;;;;1.75;0.82;;;15.30;61.90;;;;;;5010541;28;20029;-51
2022/07/16 04:11:38;;;;;;;7.70;1.55;;;15.30;61.60;;;;;;5011054;28;20125;-56
2022/07/16 04:14:05;;;;;;;2.38;1.27;;;15.30;62.10;;;;;;5011444;28;20030;-54
2022/07/16 04:16:32;;;;;;;2.15;1.40;;;15.40;61.60;;;;;;5010054;28;20037;-62
2022/07/16 04:18:59;;;;;;;2.83;1.40;;;15.50;61.40;;;;;;5010635;28;20033;-58
2022/07/16 04:21:27;;;;;;;2.13;1.10;;;15.50;61.50;;;;;;5009467;28;20084;-57
2022/07/16 04:23:54;;;;;;;2.95;1.35;;;15.60;62.20;;;;;;5010840;28;20483;-58
2022/07/16 04:26:21;;;;;;;2.40;1.08;;;15.60;60.90;;;;;;5007828;28;20053;-58
2022/07/16 04:28:48;;;;;;;1.67;0.98;;;15.50;61.70;;;;;;5007060;28;20032;-58
2022/07/16 04:31:16;;;;;;;2.25;1.45;;;15.50;62.30;;;;;;5009107;28;20058;-57
2022/07/16 04:33:43;;;;;;;4.72;1.40;;;15.50;62.20;;;;;;5007802;28;20033;-58
2022/07/16 04:36:11;;;;;;;3.67;1.63;;;15.50;61.40;;;;;;4998265;28;20034;-56
2022/07/16 04:38:38;;;;;;;2.00;1.20;;;15.60;62.40;;;;;;5010017;28;20106;-65
2022/07/16 04:41:05;;;;;;;3.03;1.42;;;15.70;61.20;;;;;;5009395;28;20162;-54
2022/07/16 04:43:33;;;;;;;4.47;2.20;;;15.70;60.30;;;;;;5009230;28;20022;-53
2022/07/16 04:46:00;;;;;;;2.53;1.00;;;15.70;61.00;;;;;;5012160;28;20044;-58
2022/07/16 04:48:27;;;;;;;3.05;1.40;;;15.70;60.70;;;;;;5011176;28;20414;-58
2022/07/16 04:50:54;;;;;;;2.08;1.08;;;15.60;61.00;;;;;;5008685;28;20030;-55
2022/07/16 04:53:22;;;;;;;3.30;1.38;;;15.60;60.10;;;;;;5008417;28;20029;-55
2022/07/16 04:55:49;;;;;;;3.90;1.60;;;15.50;61.20;;;;;;5010515;28;20038;-54
2022/07/16 04:58:16;;;;;;;1.92;1.40;;;15.50;62.70;;;;;;5005310;28;20109;-58
2022/07/16 05:00:43;;;;;;;3.20;1.23;;;15.50;62.60;;;;;;5010546;28;20038;-58
2022/07/16 05:03:10;;;;;;;2.47;1.13;;;15.40;63.00;;;;;;5014284;28;20067;-58
2022/07/16 05:05:39;;;;;;;2.33;1.10;;;15.30;63.20;;;;;;5017228;28;20394;-56
2022/07/16 05:08:08;;;;;;;3.88;1.55;;;15.30;63.50;;;;;;5010085;28;20101;-58
2022/07/16 05:10:36;;;;;;;4.82;2.05;;;15.30;63.70;;;;;;5007761;28;20053;-57
2022/07/16 05:13:05;;;;;;;4.43;1.73;;;15.20;64.00;;;;;;5010332;28;20467;-54
2022/07/16 05:15:32;;;;;;;3.45;1.55;;;15.10;64.20;;;;;;5008654;28;20072;-56
2022/07/16 05:18:00;;;;;;;3.15;1.58;;;15.00;65.00;;;;;;5008822;28;20107;-56
2022/07/16 05:20:27;;;;;;;7.57;2.10;;;14.90;65.30;;;;;;5007202;28;20489;-57
2022/07/16 05:22:54;;;;;;;2.65;1.60;;;14.80;66.00;;;;;;5007703;28;20057;-51
2022/07/16 05:25:22;;;;;;;4.20;1.77;;;14.60;66.50;;;;;;5003507;28;20048;-59
2022/07/16 05:27:50;;;;;;;2.78;1.52;;;14.50;67.30;;;;;;4997680;28;20033;-55
2022/07/16 05:30:18;;;;;;;4.03;1.65;;;14.40;67.50;;;;;;5009148;28;20042;-57
2022/07/16 05:32:45;;;;;;;2.53;1.33;;;14.20;68.20;;;;;;5008488;28;20033;-56
2022/07/16 05:35:14;;;;;;;3.10;1.60;;;14.10;68.50;;;;;;5008455;28;20032;-56
2022/07/16 05:37:42;;;;;;;4.70;1.50;;;14.00;69.10;;;;;;5009413;28;20157;-52
2022/07/16 05:40:11;;;;;;;3.88;1.77;;;13.80;68.90;;;;;;5008330;28;20402;-57
2022/07/16 05:42:39;;;;;;;3.88;1.70;;;13.70;69.70;;;;;;5009119;28;20079;-57
2022/07/16 05:45:06;;;;;;;3.95;2.00;;;13.70;70.40;;;;;;5008649;28;20036;-55
2022/07/16 05:47:34;;;;;;;4.43;2.38;;;13.50;71.00;;;;;;5008876;28;20053;-56
2022/07/16 05:50:03;;;;;;;4.47;2.47;;;13.50;72.40;;;;;;5008725;28;20034;-57
2022/07/16 05:52:31;;;;;;;5.28;2.20;;;13.40;73.10;;;;;;5007700;28;20033;-56
2022/07/16 05:54:59;;;;;;;6.10;2.78;;;13.30;73.60;;;;;;5007709;28;20025;-58
2022/07/16 05:57:26;;;;;;;9.07;2.80;;;13.20;74.30;;;;;;5007378;28;20033;-49
2022/07/16 05:59:54;;;;;;;5.93;2.70;;;13.10;75.10;;;;;;5007862;28;20048;-52
2022/07/16 06:02:21;;;;;;;13.63;3.05;;;13.00;75.50;;;;;;5004088;28;20038;-51
2022/07/16 06:04:48;;;;;;;9.88;3.08;;;12.90;76.00;;;;;;5007420;28;20379;-54
2022/07/16 06:07:15;;;;;;;10.10;2.97;;;12.80;76.30;;;;;;5019745;28;20022;-55
2022/07/16 06:09:43;;;;;;;9.48;3.28;;;12.70;76.30;;;;;;5007228;28;20050;-55
2022/07/16 06:12:10;;;;;;;11.05;3.45;;;12.70;76.80;;;;;;5006971;28;20614;-53
2022/07/16 06:14:37;;;;;;;6.28;3.13;;;12.60;77.10;;;;;;5009327;28;20026;-53
2022/07/16 06:17:04;;;;;;;12.60;3.65;;;12.60;77.10;;;;;;5008204;28;20034;-58
2022/07/16 06:19:32;;;;;;;15.02;4.43;;;12.50;76.80;;;;;;5007006;28;20030;-52
2022/07/16 06:21:59;;;;;;;24.05;3.42;;;12.40;77.30;;;;;;5006892;28;20030;-55
2022/07/16 06:24:27;;;;;;;10.98;2.75;;;12.40;77.70;;;;;;5006629;28;20514;-53
2022/07/16 06:26:54;;;;;;;8.52;3.95;;;12.30;77.80;;;;;;5003580;28;20072;-54
2022/07/16 06:29:21;;;;;;;10.38;3.20;;;12.30;78.00;;;;;;5008172;28;20572;-57
2022/07/16 06:31:48;;;;;;;6.57;3.33;;;12.20;78.00;;;;;;5004729;28;20494;-54
2022/07/16 06:34:16;;;;;;;5.82;3.10;;;12.20;78.30;;;;;;4999860;28;20049;-56
2022/07/16 06:36:43;;;;;;;6.25;3.33;;;12.10;79.30;;;;;;5007716;28;20034;-53
2022/07/16 06:39:10;;;;;;;12.55;4.05;;;12.10;78.80;;;;;;5006033;28;20141;-57
2022/07/16 06:41:38;;;;;;;9.98;3.53;;;12.00;78.70;;;;;;5008309;28;20033;-57
2022/07/16 06:44:07;;;;;;;8.70;3.40;;;11.90;78.90;;;;;;4999962;28;20022;-59
2022/07/16 06:46:35;;;;;;;7.13;3.72;;;11.70;79.10;;;;;;4986452;28;20073;-58
2022/07/16 06:49:04;;;;;;;10.02;3.72;;;11.70;79.90;;;;;;4987454;28;20029;-59
2022/07/16 06:51:31;;;;;;;9.35;4.30;;;11.60;79.80;;;;;;4986061;28;20035;-58
2022/07/16 06:53:58;;;;;;;5.10;3.67;;;11.50;80.70;;;;;;4987335;28;20132;-58
2022/07/16 06:56:26;;;;;;;6.72;3.97;;;11.40;81.40;;;;;;4990066;28;20045;-57
2022/07/16 06:58:53;;;;;;;9.32;3.75;;;11.30;81.30;;;;;;5007349;28;20509;-56
2022/07/16 07:01:20;;;;;;;6.68;3.80;;;11.30;81.70;;;;;;5004971;28;20170;-56
2022/07/16 07:03:47;;;;;;;6.45;3.65;;;11.20;81.80;;;;;;5006051;28;20056;-54
2022/07/16 07:06:15;;;;;;;9.20;3.35;;;11.10;81.60;;;;;;5010258;28;20153;-54
2022/07/16 07:08:43;;;;;;;5.03;3.40;;;11.00;82.80;;;;;;5007895;28;20034;-51
2022/07/16 07:11:11;;;;;;;5.50;3.05;;;10.90;83.20;;;;;;5022858;28;20022;-53
2022/07/16 07:13:38;;;;;;;8.43;3.88;;;10.80;83.50;;;;;;4996096;28;20027;-54
2022/07/16 07:16:06;;;;;;;7.22;3.47;;;10.70;84.00;;;;;;5011878;28;20045;-52
2022/07/16 07:18:33;;;;;;;10.02;3.80;;;10.60;84.70;;;;;;5012206;28;20049;-56
2022/07/16 07:21:01;;;;;;;6.97;4.15;;;10.50;85.40;;;;;;5011947;28;20616;-51
2022/07/16 07:23:29;;;;;;;9.05;4.22;;;10.40;85.70;;;;;;5014384;28;20084;-51
2022/07/16 07:25:56;;;;;;;10.20;3.97;;;10.30;86.20;;;;;;5011840;28;20041;-53
2022/07/16 07:28:23;;;;;;;6.63;4.32;;;10.20;86.70;;;;;;5011510;28;20105;-53
2022/07/16 07:30:51;;;;;;;8.38;3.97;;;10.10;87.00;;;;;;5009520;28;20034;-56
2022/07/16 07:33:18;;;;;;;6.65;4.03;;;10.00;87.30;;;;;;5010613;28;20022;-53
2022/07/16 07:35:45;;;;;;;10.25;4.40;;;9.90;87.50;;;;;;5009682;28;20129;-56
2022/07/16 07:38:13;;;;;;;8.57;4.50;;;9.80;89.30;;;;;;5010744;28;20018;-52
2022/07/16 07:40:40;;;;;;;9.32;4.35;;;9.70;89.80;;;;;;5011270;28;20487;-52
2022/07/16 07:43:07;;;;;;;9.32;4.13;;;9.70;90.50;;;;;;5008820;28;20026;-55
2022/07/16 07:45:35;;;;;;;8.48;4.88;;;9.60;90.30;;;;;;5009958;28;20044;-53
2022/07/16 07:48:02;;;;;;;8.75;3.90;;;9.60;90.30;;;;;;5007904;28;20055;-50
2022/07/16 07:50:29;;;;;;;8.10;4.30;;;9.50;90.50;;;;;;5011290;28;20026;-52
2022/07/16 07:52:56;;;;;;;11.13;5.88;;;9.50;90.60;;;;;;5009505;28;20068;-54
2022/07/16 07:55:24;;;;;;;7.82;4.90;;;9.50;91.00;;;;;;5000045;28;20025;-53
2022/07/16 07:57:51;;;;;;;10.57;5.13;;;9.50;91.20;;;;;;5010068;28;20034;-54
2022/07/16 08:00:19;;;;;;;10.73;4.68;;;9.60;90.90;;;;;;5010120;28;20498;-51
2022/07/16 08:02:47;;;;;;;11.00;5.53;;;9.60;90.90;;;;;;5007599;28;20030;-56
2022/07/16 08:05:14;;;;;;;7.70;5.20;;;9.60;90.90;;;;;;5008926;28;20025;-54
2022/07/16 08:07:43;;;;;;;13.07;6.40;;;9.50;90.80;;;;;;5009568;28;20422;-54
2022/07/16 08:10:11;;;;;;;9.65;6.68;;;9.50;90.90;;;;;;5009632;28;20467;-62
2022/07/16 08:12:39;;;;;;;10.32;6.00;;;9.40;91.80;;;;;;5011759;28;20080;-53
2022/07/16 08:15:08;;;;;;;16.52;6.47;;;9.40;91.60;;;;;;5011158;28;20045;-52
2022/07/16 08:17:36;;;;;;;11.98;6.97;;;9.50;91.70;;;;;;5011674;28;20034;-55
2022/07/16 08:20:05;;;;;;;10.55;7.53;;;9.50;91.40;;;;;;5011241;28;20091;-55
2022/07/16 08:22:32;;;;;;;12.57;7.20;;;9.40;91.20;;;;;;5011233;28;20475;-51
2022/07/16 08:27:48;;;;;;;17.45;11.15;;;9.30;92.00;;;;;;5022473;28;20105;-52
2022/07/16 08:30:15;;;;;;;16.95;10.73;;;9.30;92.00;;;;;;5010082;28;20018;-59
2022/07/16 08:32:42;;;;;;;18.27;9.80;;;9.20;91.90;;;;;;5007917;28;20064;-60
2022/07/16 08:35:10;;;;;;;17.27;9.85;;;9.20;91.90;;;;;;5007984;28;20076;-56
2022/07/16 08:37:41;;;;;;;16.10;11.55;;;9.10;91.90;;;;;;5006451;28;20056;-53
2022/07/16 08:40:11;;;;;;;17.52;10.20;;;9.00;92.30;;;;;;5005833;28;20037;-56
2022/07/16 08:42:39;;;;;;;22.13;11.73;;;9.00;92.60;;;;;;5009086;28;20429;-56
2022/07/16 08:45:10;;;;;;;18.35;11.70;;;8.90;92.60;;;;;;5009447;28;20045;-57
2022/07/16 08:47:38;;;;;;;16.92;10.45;;;8.90;92.80;;;;;;5006875;28;20038;-55
2022/07/16 08:50:10;;;;;;;13.57;9.57;;;8.80;93.80;;;;;;5007390;28;20639;-56
2022/07/16 08:52:48;;;;;;;18.95;10.15;;;8.90;93.40;;;;;;5006389;28;20057;-54
2022/07/16 08:55:15;;;;;;;18.95;10.65;;;8.80;93.30;;;;;;5008292;28;20032;-50
2022/07/16 08:57:48;;;;;;;15.55;10.18;;;8.80;93.20;;;;;;5009008;28;20026;-54
2022/07/16 09:00:16;;;;;;;20.92;11.60;;;8.70;93.40;;;;;;5007459;28;20113;-53
2022/07/16 09:02:45;;;;;;;23.08;11.70;;;8.70;93.40;;;;;;5009584;28;20594;-57
2022/07/16 09:05:12;;;;;;;18.27;10.65;;;8.70;93.50;;;;;;5010728;28;20022;-54
2022/07/16 09:07:39;;;;;;;17.60;11.43;;;8.60;93.60;;;;;;5011188;28;20026;-55
2022/07/16 09:10:08;;;;;;;21.92;11.68;;;8.60;94.00;;;;;;5010926;28;20018;-55
2022/07/16 09:12:47;;;;;;;20.42;11.02;;;8.50;93.80;;;;;;5010399;28;20033;-54
2022/07/16 09:15:28;;;;;;;20.15;11.93;;;8.50;94.10;;;;;;5010599;28;20080;-55
2022/07/16 09:18:16;;;;;;;24.60;15.00;;;8.50;94.20;;;;;;5010066;28;20038;-54
2022/07/16 09:20:55;;;;;;;24.20;14.40;;;8.40;94.30;;;;;;5010890;28;20478;-52
2022/07/16 09:23:34;;;;;;;26.55;15.45;;;8.40;94.50;;;;;;5010386;28;20030;-54
2022/07/16 09:26:11;;;;;;;27.33;14.43;;;8.40;94.70;;;;;;5009046;28;20056;-55
2022/07/16 09:28:45;;;;;;;21.40;14.00;;;8.40;94.70;;;;;;5009589;28;20030;-56
2022/07/16 09:31:31;;;;;;;26.67;12.07;;;8.40;94.90;;;;;;5010062;28;20018;-58
2022/07/16 09:34:11;;;;;;;19.08;11.80;;;8.40;94.90;;;;;;5010173;28;20049;-54
2022/07/16 09:36:40;;;;;;;18.85;11.07;;;8.40;94.90;;;;;;5010538;28;20089;-57
2022/07/16 09:39:09;;;;;;;18.08;11.02;;;8.50;94.80;;;;;;5010536;28;20434;-53
2022/07/16 09:41:47;;;;;;;16.17;10.07;;;8.60;94.30;;;;;;5010260;28;20106;-55
2022/07/16 09:44:22;;;;;;;18.50;9.40;;;8.70;94.00;;;;;;5010126;28;20112;-56
2022/07/16 09:47:05;;;;;;;16.88;10.30;;;8.70;94.00;;;;;;5009785;28;20554;-54
2022/07/16 09:49:36;;;;;;;15.80;9.35;;;8.80;94.00;;;;;;5008713;28;20593;-56
2022/07/16 09:52:08;;;;;;;16.88;8.60;;;8.80;93.70;;;;;;5009921;28;20022;-53
2022/07/16 09:54:38;;;;;;;13.25;8.20;;;8.90;93.40;;;;;;5010406;28;20026;-54
2022/07/16 09:57:15;;;;;;;12.52;8.23;;;8.90;93.10;;;;;;5010003;28;20120;-54
2022/07/16 09:59:44;;;;;;;13.02;6.00;;;9.00;92.00;;;;;;5009825;28;20018;-56
2022/07/16 10:02:13;;;;;;;9.55;5.55;;;9.10;90.40;;;;;;5008708;28;20407;-55
2022/07/16 10:04:41;;;;;;;9.35;3.03;;;9.10;89.20;;;;;;5010255;28;20037;-53
2022/07/16 10:07:08;;;;;;;4.38;2.60;;;9.30;84.30;;;;;;5010158;28;20386;-55
2022/07/16 10:09:36;;;;;;;6.43;2.58;;;9.40;81.90;;;;;;5009694;28;20101;-54
2022/07/16 10:12:10;;;;;;;4.68;2.60;;;9.50;80.50;;;;;;5009761;28;20420;-54
2022/07/16 10:14:44;;;;;;;5.50;2.60;;;9.60;79.20;;;;;;5010230;28;20590;-57
2022/07/16 10:17:17;;;;;;;4.97;2.50;;;9.80;77.70;;;;;;5009654;28;20406;-60
2022/07/16 10:19:45;;;;;;;4.47;2.25;;;9.80;77.80;;;;;;5009584;28;20109;-57
2022/07/16 10:22:18;;;;;;;4.75;2.50;;;9.80;77.00;;;;;;5009549;28;20030;-56
2022/07/16 10:24:50;;;;;;;8.52;2.60;;;9.80;76.40;;;;;;5008325;28;20022;-54
2022/07/16 10:27:32;;;;;;;26.10;4.35;;;9.90;75.20;;;;;;5009836;28;20491;-54
2022/07/16 10:30:32;;;;;;;4.15;2.55;;;9.90;74.30;;;;;;5010721;28;20029;-54
2022/07/16 10:33:00;;;;;;;5.07;2.60;;;10.00;74.50;;;;;;5012254;28;20112;-56
2022/07/16 10:35:32;;;;;;;6.80;2.42;;;10.10;73.00;;;;;;5012065;28;20096;-56
2022/07/16 10:38:08;;;;;;;5.32;2.00;;;10.20;72.50;;;;;;5013297;28;20030;-55
2022/07/16 10:40:44;;;;;;;4.35;1.92;;;10.20;72.60;;;;;;5013430;28;20018;-55
2022/07/16 10:43:13;;;;;;;4.80;1.90;;;10.20;72.00;;;;;;5013819;28;20510;-54
2022/07/16 10:46:00;;;;;;;3.67;1.70;;;10.40;70.20;;;;;;5012398;28;20026;-54
2022/07/16 10:48:40;;;;;;;4.10;2.25;;;10.50;70.40;;;;;;5013039;28;20049;-56
2022/07/16 10:54:01;;;;;;;3.60;2.00;;;10.70;68.80;;;;;;5011878;28;20562;-56
2022/07/16 10:56:43;;;;;;;3.55;1.83;;;10.60;69.50;;;;;;5013051;28;20052;-55
2022/07/16 10:59:13;;;;;;;2.42;1.38;;;10.60;69.40;;;;;;5013669;28;20022;-57
2022/07/16 11:01:43;;;;;;;4.55;1.83;;;10.50;69.60;;;;;;5012047;28;20046;-56
2022/07/16 11:04:11;;;;;;;3.22;1.40;;;10.60;69.40;;;;;;5013558;28;20108;-56
2022/07/16 11:06:41;;;;;;;4.80;1.92;;;10.60;69.10;;;;;;5013366;28;20437;-57
2022/07/16 11:09:09;;;;;;;3.35;1.30;;;10.60;68.60;;;;;;5013267;28;20538;-56
2022/07/16 11:11:39;;;;;;;7.32;1.33;;;10.70;68.40;;;;;;5013216;28;20033;-54
2022/07/16 11:14:10;;;;;;;2.83;1.83;;;10.70;68.00;;;;;;5011612;28;20475;-58
2022/07/16 11:16:50;;;;;;;3.33;1.20;;;10.70;67.80;;;;;;5011491;28;20037;-57
2022/07/16 11:19:18;;;;;;;2.42;1.20;;;10.90;66.20;;;;;;5011357;28;20022;-57
2022/07/16 11:21:58;;;;;;;2.40;1.33;;;11.00;66.10;;;;;;5011149;28;20462;-53
2022/07/16 11:24:27;;;;;;;2.58;1.60;;;11.10;65.70;;;;;;5011303;28;20108;-53
2022/07/16 11:26:56;;;;;;;2.30;1.10;;;11.20;65.10;;;;;;5012579;28;20046;-55
2022/07/16 11:29:26;;;;;;;2.08;1.10;;;11.20;65.10;;;;;;5012447;28;20014;-58
2022/07/16 11:31:55;;;;;;;1.20;0.75;;;11.30;64.80;;;;;;5010847;28;20052;-56
2022/07/16 11:34:23;;;;;;;2.40;1.13;;;11.20;65.10;;;;;;5012497;28;20044;-56
2022/07/16 11:36:53;;;;;;;1.85;0.90;;;11.20;64.90;;;;;;5011016;28;20045;-58
2022/07/16 11:39:27;;;;;;;1.92;0.82;;;11.10;65.70;;;;;;5011111;28;20112;-56
2022/07/16 11:41:58;;;;;;;1.60;0.90;;;11.00;65.60;;;;;;5011938;28;20142;-56
2022/07/16 11:44:29;;;;;;;2.17;0.98;;;11.00;65.60;;;;;;5010995;28;20057;-56
2022/07/16 11:47:02;;;;;;;2.25;1.15;;;10.90;65.70;;;;;;5010690;28;20148;-51
2022/07/16 11:49:33;;;;;;;2.28;0.90;;;10.90;66.30;;;;;;5012126;28;20028;-58
2022/07/16 11:52:24;;;;;;;1.88;1.20;;;10.90;66.20;;;;;;5010851;28;20056;-54
2022/07/16 11:54:53;;;;;;;2.22;1.00;;;10.90;66.10;;;;;;5012184;28;20037;-56
2022/07/16 11:57:20;;;;;;;2.22;0.93;;;10.90;66.40;;;;;;5011984;28;20042;-57
2022/07/16 11:59:50;;;;;;;2.22;1.40;;;10.90;66.00;;;;;;5011973;28;20426;-56
2022/07/16 12:02:20;;;;;;;2.95;1.45;;;10.80;66.10;;;;;;5012060;28;20030;-56
2022/07/16 12:04:53;;;;;;;2.97;1.20;;;10.70;66.70;;;;;;5010495;28;20026;-56
2022/07/16 12:07:30;;;;;;;1.90;1.08;;;10.50;67.20;;;;;;5011844;28;20095;-57
2022/07/16 12:10:04;;;;;;;3.60;1.17;;;10.40;67.30;;;;;;5010321;28;20368;-57
2022/07/16 12:12:34;;;;;;;2.70;1.47;;;10.30;67.90;;;;;;5010355;28;20485;-55
2022/07/16 12:15:06;;;;;;;4.57;1.60;;;10.00;68.60;;;;;;5010376;28;20026;-57
2022/07/16 12:17:37;;;;;;;3.47;1.45;;;9.90;69.20;;;;;;5010180;28;20685;-58
2022/07/16 12:20:25;;;;;;;1.85;1.17;;;9.70;70.30;;;;;;5011478;28;20064;-51
2022/07/16 12:23:00;;;;;;;1.50;1.00;;;9.50;71.50;;;;;;5010209;28;20092;-51
2022/07/16 12:25:36;;;;;;;2.88;1.55;;;9.20;72.30;;;;;;5011523;28;20018;-54
2022/07/16 12:28:22;;;;;;;3.92;1.67;;;9.10;73.30;;;;;;5011396;28;20112;-50
2022/07/16 12:30:56;;;;;;;7.20;1.85;;;8.90;73.90;;;;;;5011338;28;20053;-55
2022/07/16 12:33:27;;;;;;;5.85;1.95;;;8.80;74.80;;;;;;5011328;28;20389;-56
2022/07/16 12:35:57;;;;;;;3.33;1.30;;;8.60;75.70;;;;;;5011233;28;20069;-58
2022/07/16 12:38:51;;;;;;;2.72;1.25;;;8.40;76.00;;;;;;5011144;28;20482;-52
2022/07/16 12:41:24;;;;;;;3.65;1.38;;;8.20;77.10;;;;;;5011175;28;20633;-53
2022/07/16 12:43:57;;;;;;;2.78;1.30;;;8.10;78.40;;;;;;5009812;28;20051;-57
2022/07/16 12:46:26;;;;;;;3.38;1.50;;;8.00;79.20;;;;;;5009191;28;20049;-56
2022/07/16 12:49:03;;;;;;;2.60;1.20;;;7.90;79.60;;;;;;5010166;28;20471;-52
2022/07/16 12:51:33;;;;;;;4.38;2.08;;;7.80;80.30;;;;;;5010040;28;20501;-55
2022/07/16 12:54:02;;;;;;;3.03;1.13;;;7.80;80.50;;;;;;5009577;28;20127;-52
2022/07/16 12:59:16;;;;;;;3.55;1.55;;;7.80;80.80;;;;;;5009948;28;20088;-56
2022/07/16 13:01:44;;;;;;;3.50;1.20;;;7.80;80.60;;;;;;5009821;28;20022;-61
2022/07/16 13:04:12;;;;;;;2.70;1.10;;;7.80;80.60;;;;;;5010447;28;20037;-51
2022/07/16 13:06:40;;;;;;;3.47;1.17;;;7.80;79.50;;;;;;5010247;28;20018;-52
2022/07/16 13:09:08;;;;;;;3.92;1.30;;;7.80;80.30;;;;;;5009831;28;20057;-52